Acala del Rio, Spain
Current Conditions -  °F | °C
As of 11:00 AM on Monday 26 Jan 2015 (Local Time) from LEZL Reporting Station
Clear Clear  
Wind Chill: 45°   Ceiling: Unl
Heat Index: 48°   Visibility: 6mi
Dew Point: 37°   Wind: 7mph
Humidity: 66%   Direction: 50°NE
Pressure: 30.36"   Gusts: NA
Location:  37.52°N, 5.98°W
Report Text: LEZL 261000Z 05006KT CAVOK 09/03 Q1028 NOSIG
Loading
Personal Weather Stations






























Interactive Weather Map New forecast layout! Learn more

10-Day Weather Forecast

Advertisements
Track Severe Weather on mobile